Time;durP1;ratioP1;P1;durP2;ratioP2;P2;SDS_P1;SDS_P2;PMS_P1;PMS_P2;Temp;Humidity;BMP_temperature;BMP_pressure;BME280_temperature;BME280_humidity;BME280_pressure;Samples;Min_cycle;Max_cycle;Signal;HPM_P1;HPM_P2
2023/02/24 00:01:11;;;;;;;194.20;177.40;;;;;;;2.65;76.20;101281.59;4926371;29;20046;-71
2023/02/24 00:03:36;;;;;;;196.07;179.57;;;;;;;2.60;76.57;101281.38;4927862;29;20059;-71
2023/02/24 00:06:10;;;;;;;199.63;182.07;;;;;;;2.59;77.29;101290.34;4925054;28;20143;-73
2023/02/24 00:08:41;;;;;;;194.45;177.55;;;;;;;2.55;77.70;101286.47;4926884;29;20627;-72
2023/02/24 00:11:12;;;;;;;191.13;174.68;;;;;;;2.56;78.73;101277.50;4936834;29;20027;-72
2023/02/24 00:13:39;;;;;;;210.50;194.00;;;;;;;2.60;78.10;101273.47;4927751;29;20040;-71
2023/02/24 00:16:06;;;;;;;191.70;175.70;;;;;;;2.50;79.07;101283.59;4926381;29;20036;-72
2023/02/24 00:18:33;;;;;;;198.40;181.98;;;;;;;2.65;77.85;101265.72;4926422;29;20581;-72
2023/02/24 00:21:15;;;;;;;194.38;177.73;;;;;;;2.58;78.05;101270.22;4928268;29;20044;-72
2023/02/24 00:23:43;;;;;;;192.55;176.07;;;;;;;2.70;77.96;101264.06;4924833;29;20031;-70
2023/02/24 00:26:11;;;;;;;192.95;176.35;;;;;;;2.63;77.51;101262.47;4928545;29;20671;-72
2023/02/24 00:28:39;;;;;;;192.70;176.52;;;;;;;2.68;77.11;101260.03;4925390;29;20031;-70
2023/02/24 00:31:13;;;;;;;211.48;195.20;;;;;;;2.68;76.92;101254.72;4925335;29;20061;-72
2023/02/24 00:33:39;;;;;;;210.55;193.95;;;;;;;2.61;76.92;101251.28;4924665;29;20119;-72
2023/02/24 00:36:09;;;;;;;212.70;196.30;;;;;;;2.51;77.21;101254.34;4942797;29;20517;-73
2023/02/24 00:38:36;;;;;;;197.93;181.40;;;;;;;2.57;77.44;101255.34;4906036;29;20035;-73
2023/02/24 00:41:15;;;;;;;211.82;195.15;;;;;;;2.59;77.90;101240.91;4922931;29;20051;-71
2023/02/24 00:43:48;;;;;;;198.52;181.77;;;;;;;2.58;77.99;101243.78;4939729;29;20043;-73
2023/02/24 00:46:21;;;;;;;194.57;178.10;;;;;;;2.54;77.62;101243.34;4923276;29;20035;-73
2023/02/24 00:48:48;;;;;;;212.65;195.73;;;;;;;2.49;78.08;101234.41;4925930;29;20039;-72
2023/02/24 00:51:22;;;;;;;209.48;193.32;;;;;;;2.51;76.76;101232.34;4926189;29;20052;-72
2023/02/24 00:53:49;;;;;;;210.38;193.90;;;;;;;2.55;77.20;101233.59;4928789;29;20039;-72
2023/02/24 00:56:15;;;;;;;192.43;175.98;;;;;;;2.52;77.07;101223.44;4925720;29;20062;-72
2023/02/24 00:58:43;;;;;;;190.18;173.73;;;;;;;2.53;76.78;101220.56;4926013;29;20070;-72
2023/02/24 01:01:19;;;;;;;191.50;175.27;;;;;;;2.44;77.44;101209.41;4925285;29;20042;-72
2023/02/24 01:03:49;;;;;;;209.73;193.02;;;;;;;2.41;78.28;101209.78;4927282;29;20494;-73
2023/02/24 01:06:20;;;;;;;201.77;184.40;;;;;;;2.39;77.43;101200.47;4927856;29;20036;-73
2023/02/24 01:08:48;;;;;;;191.48;174.88;;;;;;;2.43;77.80;101199.00;4926938;29;20039;-72
2023/02/24 01:12:37;;;;;;;192.38;175.90;;;;;;;2.39;77.66;101198.63;4927057;29;20039;-70
2023/02/24 01:14:18;;;;;;;193.82;177.43;;;;;;;2.41;78.05;101191.28;4909985;29;20040;-72
2023/02/24 01:16:49;;;;;;;202.25;186.27;;;;;;;2.39;77.95;101182.75;4929572;29;20032;-71
2023/02/24 01:19:18;;;;;;;191.73;175.02;;;;;;;2.36;78.21;101177.88;4928733;29;20043;-73
2023/02/24 01:21:44;;;;;;;199.15;182.70;;;;;;;2.39;77.17;101168.72;4931410;29;20039;-71
2023/02/24 01:24:14;;;;;;;209.65;192.52;;;;;;;2.36;77.54;101166.47;4931555;29;20683;-72
2023/02/24 01:26:40;;;;;;;210.48;193.80;;;;;;;2.31;78.23;101164.47;4926014;29;20082;-74
2023/02/24 01:29:09;;;;;;;191.43;175.20;;;;;;;2.35;76.67;101149.81;4942076;29;20031;-73
2023/02/24 01:31:41;;;;;;;194.43;177.52;;;;;;;2.40;76.81;101151.84;4926050;29;20401;-74
2023/02/24 01:34:09;;;;;;;;;;;;;;;2.45;76.08;101149.41;4944770;29;20078;-72
2023/02/24 01:36:36;;;;;;;209.65;192.98;;;;;;;2.41;76.93;101143.72;4944354;28;19919;-72
2023/02/24 01:39:05;;;;;;;208.57;192.07;;;;;;;2.49;76.23;101139.22;4944853;29;20042;-73
2023/02/24 01:41:31;;;;;;;207.73;191.57;;;;;;;2.44;76.65;101134.56;4927175;29;20110;-72
2023/02/24 01:44:08;;;;;;;200.52;183.35;;;;;;;2.37;76.15;101141.66;4943837;29;20043;-71
2023/02/24 01:46:42;;;;;;;212.45;195.73;;;;;;;2.34;75.96;101136.81;4914385;29;20091;-71
2023/02/24 01:49:16;;;;;;;191.65;175.05;;;;;;;2.48;75.81;101133.13;4943001;28;20528;-71
2023/02/24 01:51:48;;;;;;;196.80;180.10;;;;;;;2.55;75.70;101128.63;4921912;29;20039;-72
2023/02/24 01:54:17;;;;;;;211.98;194.70;;;;;;;2.49;74.33;101118.06;4941352;29;20036;-73
2023/02/24 01:56:47;;;;;;;201.43;183.88;;;;;;;2.47;74.40;101119.09;4925278;29;20040;-71
2023/02/24 01:59:14;;;;;;;212.32;195.50;;;;;;;2.54;74.49;101111.16;4928859;29;20039;-71
2023/02/24 02:01:41;;;;;;;207.27;191.20;;;;;;;2.51;74.51;101116.03;4942010;29;20036;-73
2023/02/24 02:04:31;;;;;;;207.38;191.00;;;;;;;2.54;74.30;101110.34;4942158;28;20075;-73
2023/02/24 02:06:59;;;;;;;202.13;184.70;;;;;;;2.60;74.14;101114.81;4942012;29;20051;-73
2023/02/24 02:09:30;;;;;;;206.13;189.55;;;;;;;2.60;74.37;101104.22;4928830;29;20043;-72
2023/02/24 02:11:56;;;;;;;201.63;185.02;;;;;;;2.56;74.43;101100.34;4927433;29;20035;-72
2023/02/24 02:14:25;;;;;;;201.15;184.02;;;;;;;2.57;74.33;101094.03;4926585;29;20142;-73
2023/02/24 02:17:29;;;;;;;207.63;191.05;;;;;;;2.56;74.60;101100.34;4927451;29;20031;-72
2023/02/24 02:20:18;;;;;;;201.38;184.63;;;;;;;2.52;74.98;101081.47;4927491;29;20031;-72
2023/02/24 02:23:06;;;;;;;;;;;;;;;2.49;74.41;101083.69;4925313;29;20032;-72
2023/02/24 02:25:54;;;;;;;200.77;184.13;;;;;;;2.48;74.93;101074.97;4925277;29;20386;-73
2023/02/24 02:28:44;;;;;;;199.93;183.43;;;;;;;2.54;75.22;101078.63;4942192;28;20051;-72
2023/02/24 02:31:49;;;;;;;203.93;187.60;;;;;;;2.53;75.13;101067.22;4929053;29;20409;-72
2023/02/24 02:34:27;;;;;;;199.15;182.68;;;;;;;2.57;75.03;101072.91;4926985;29;20040;-72
2023/02/24 02:37:02;;;;;;;200.02;183.57;;;;;;;2.59;74.03;101060.28;4926086;29;20058;-72
2023/02/24 02:39:45;;;;;;;202.38;186.10;;;;;;;2.52;74.31;101057.69;4909219;29;20047;-73
2023/02/24 02:42:24;;;;;;;204.23;188.07;;;;;;;2.47;73.95;101046.91;4925772;29;20524;-73
2023/02/24 02:44:56;;;;;;;200.27;183.73;;;;;;;2.40;75.19;101046.13;4903789;29;20051;-72
2023/02/24 02:47:28;;;;;;;201.75;184.45;;;;;;;2.35;74.80;101045.91;4932601;29;20363;-73
2023/02/24 02:50:00;;;;;;;200.05;183.27;;;;;;;2.24;74.37;101041.28;4944625;28;20140;-72
2023/02/24 02:52:41;;;;;;;199.10;182.73;;;;;;;2.22;75.17;101041.47;4909950;29;20449;-71
2023/02/24 02:55:29;;;;;;;201.95;185.25;;;;;;;2.18;75.31;101038.44;4926427;29;20051;-72
2023/02/24 02:57:57;;;;;;;199.27;183.07;;;;;;;2.16;75.52;101040.47;4909269;29;20132;-72
2023/02/24 03:00:34;;;;;;;204.88;188.00;;;;;;;2.43;73.09;101024.53;4925408;29;20094;-72
2023/02/24 03:03:07;;;;;;;202.93;186.07;;;;;;;2.32;74.13;101022.56;4925661;29;20138;-71
2023/02/24 03:05:45;;;;;;;199.75;183.40;;;;;;;2.42;74.50;101015.00;4908883;29;20055;-72
2023/02/24 03:08:17;;;;;;;202.02;185.18;;;;;;;2.41;74.90;101005.44;4924144;29;20040;-73
2023/02/24 03:10:44;;;;;;;202.57;186.40;;;;;;;2.35;74.91;101007.09;4925461;29;20044;-73
2023/02/24 03:13:12;;;;;;;201.07;184.80;;;;;;;2.37;74.42;101004.22;4940446;28;20064;-73
2023/02/24 03:15:41;;;;;;;202.00;185.80;;;;;;;2.38;75.22;101009.31;4906958;29;20142;-72
2023/02/24 03:18:17;;;;;;;200.13;183.77;;;;;;;2.40;74.34;100999.34;4906781;29;20047;-73
2023/02/24 03:20:56;;;;;;;199.23;183.02;;;;;;;2.45;74.39;100996.09;4927181;29;20058;-73
2023/02/24 03:23:30;;;;;;;200.48;183.77;;;;;;;2.47;74.43;100989.56;4924697;29;20047;-72
2023/02/24 03:26:06;;;;;;;203.48;186.65;;;;;;;2.45;73.73;100975.75;4926172;29;20054;-74
2023/02/24 03:28:36;;;;;;;205.55;189.68;;;;;;;2.56;73.73;100976.09;4938837;28;20417;-73
2023/02/24 03:31:16;;;;;;;195.35;179.52;;;;;;;2.47;73.74;100968.41;4910433;29;20670;-73
2023/02/24 03:33:59;;;;;;;200.35;184.35;;;;;;;2.53;71.64;100961.47;4924696;29;20498;-72
2023/02/24 03:36:27;;;;;;;204.38;188.15;;;;;;;2.57;72.32;100964.50;4923558;29;20497;-73
2023/02/24 03:38:57;;;;;;;201.15;184.85;;;;;;;2.60;72.10;100961.44;4908931;29;20530;-72
2023/02/24 03:41:31;;;;;;;202.02;185.60;;;;;;;2.65;72.27;100964.28;4939277;28;20044;-71
2023/02/24 03:44:00;;;;;;;204.70;188.63;;;;;;;2.62;72.48;100960.19;4924932;29;20134;-71
2023/02/24 03:46:26;;;;;;;198.07;181.85;;;;;;;2.62;71.89;100948.81;4940148;29;20040;-72
2023/02/24 03:49:11;;;;;;;199.48;183.18;;;;;;;2.61;71.54;100940.06;4910216;28;20047;-72
2023/02/24 03:51:37;;;;;;;207.60;191.23;;;;;;;2.62;71.75;100935.59;4921319;29;20203;-73
2023/02/24 03:54:35;;;;;;;201.70;185.25;;;;;;;2.59;72.00;100928.91;4925303;29;20039;-72
2023/02/24 03:57:18;;;;;;;199.40;182.90;;;;;;;2.56;72.10;100928.50;4924970;29;20038;-73
2023/02/24 03:59:57;;;;;;;201.90;185.27;;;;;;;2.57;72.70;100924.84;4923490;29;20556;-71
2023/02/24 04:02:30;;;;;;;196.63;181.02;;;;;;;2.57;71.86;100914.25;4924937;29;20134;-73
2023/02/24 04:05:05;;;;;;;201.70;185.82;;;;;;;2.54;72.56;100912.06;4913468;29;20051;-73
2023/02/24 04:07:52;;;;;;;204.60;187.68;;;;;;;2.45;72.86;100901.72;4926343;29;20056;-73
2023/02/24 04:10:51;;;;;;;201.48;185.52;;;;;;;2.49;72.81;100902.09;4911089;29;20471;-73
2023/02/24 04:13:34;;;;;;;201.82;185.70;;;;;;;2.54;72.73;100891.72;4924823;29;20103;-71
2023/02/24 04:16:15;;;;;;;195.75;179.82;;;;;;;2.47;72.56;100883.00;4926836;29;20039;-73
2023/02/24 04:18:48;;;;;;;199.25;183.55;;;;;;;2.47;72.69;100888.28;4925063;28;20421;-72
2023/02/24 04:21:17;;;;;;;205.13;188.55;;;;;;;2.45;73.20;100870.00;4924649;29;20071;-72
2023/02/24 04:23:45;;;;;;;200.75;184.43;;;;;;;2.47;72.07;100854.72;4927236;29;20035;-72
2023/02/24 04:26:14;;;;;;;201.57;185.18;;;;;;;2.45;72.77;100859.44;4925670;29;20079;-73
2023/02/24 04:28:41;;;;;;;200.50;184.27;;;;;;;2.38;73.81;100845.44;4910016;29;20125;-72
2023/02/24 04:31:16;;;;;;;200.35;184.43;;;;;;;2.34;73.56;100840.78;4947982;28;20048;-73
2023/02/24 04:33:49;;;;;;;200.73;184.07;;;;;;;2.36;73.78;100839.53;4927312;29;20112;-72
2023/02/24 04:36:21;;;;;;;199.88;183.45;;;;;;;2.39;73.47;100818.00;4925684;29;20098;-73
2023/02/24 04:38:47;;;;;;;198.70;182.18;;;;;;;2.43;73.24;100826.28;4925966;29;20039;-73
2023/02/24 04:41:19;;;;;;;201.55;185.40;;;;;;;2.36;73.59;100826.34;4924557;29;20115;-73
2023/02/24 04:43:52;;;;;;;199.80;183.75;;;;;;;2.41;73.68;100818.56;4913794;29;20074;-71
2023/02/24 04:46:18;;;;;;;201.38;184.88;;;;;;;2.44;74.34;100802.31;4929724;29;20035;-72
2023/02/24 04:48:44;;;;;;;199.57;183.73;;;;;;;2.44;74.60;100814.72;4924731;29;20565;-72
2023/02/24 04:51:10;;;;;;;195.73;180.00;;;;;;;2.43;73.79;100800.66;4924509;29;20052;-72
2023/02/24 04:53:38;;;;;;;203.57;187.48;;;;;;;2.43;74.30;100792.72;4930385;29;20040;-74
2023/02/24 04:56:07;;;;;;;203.02;187.07;;;;;;;2.44;74.94;100791.72;4926602;29;20114;-72
2023/02/24 04:58:35;;;;;;;199.18;183.45;;;;;;;2.44;74.57;100778.53;4925758;29;20054;-71
2023/02/24 05:01:08;;;;;;;197.43;181.63;;;;;;;2.42;75.83;100769.97;4929915;29;20035;-73
2023/02/24 05:03:35;;;;;;;207.10;191.05;;;;;;;2.38;75.68;100758.22;4926408;29;20043;-72
2023/02/24 05:06:01;;;;;;;200.27;183.98;;;;;;;2.44;76.06;100760.00;4925877;29;20452;-72
2023/02/24 05:08:29;;;;;;;202.05;185.63;;;;;;;2.40;76.34;100761.47;4931581;29;20084;-71
2023/02/24 05:10:57;;;;;;;199.85;183.63;;;;;;;2.35;76.49;100753.34;4931462;29;20031;-73
2023/02/24 05:13:26;;;;;;;198.05;182.05;;;;;;;2.39;76.87;100741.34;4931555;29;20043;-71
2023/02/24 05:15:59;;;;;;;199.00;182.65;;;;;;;2.35;77.33;100748.06;4930245;29;20047;-71
2023/02/24 05:18:28;;;;;;;201.45;185.20;;;;;;;2.36;76.69;100736.47;4927153;29;20105;-72
2023/02/24 05:23:44;;;;;;;199.30;183.18;;;;;;;2.29;76.71;100724.34;4930667;29;20032;-73
2023/02/24 05:26:16;;;;;;;198.32;182.32;;;;;;;2.28;76.61;100712.97;4946073;29;20039;-72
2023/02/24 05:28:51;;;;;;;199.73;183.90;;;;;;;2.32;76.67;100714.16;4928261;29;20178;-73
2023/02/24 05:31:27;;;;;;;200.93;184.45;;;;;;;2.35;76.62;100700.50;4928611;29;20135;-73
2023/02/24 05:33:58;;;;;;;198.98;183.15;;;;;;;2.40;76.23;100698.03;4929848;29;20102;-73
2023/02/24 05:36:28;;;;;;;196.50;180.85;;;;;;;2.39;76.09;100701.69;4930074;29;20038;-72
2023/02/24 05:38:59;;;;;;;202.68;186.85;;;;;;;2.41;75.82;100681.13;4912460;29;20035;-73
2023/02/24 05:41:34;;;;;;;199.80;183.73;;;;;;;2.43;76.29;100676.44;4944516;28;20040;-71
2023/02/24 05:44:07;;;;;;;197.68;181.57;;;;;;;2.50;75.85;100678.22;4929043;29;20118;-73
2023/02/24 05:46:37;;;;;;;199.02;183.07;;;;;;;2.51;76.12;100682.47;4923984;29;20134;-73
2023/02/24 05:49:07;;;;;;;201.38;184.85;;;;;;;2.51;75.91;100666.59;4927307;29;20054;-72
2023/02/24 05:51:34;;;;;;;199.48;183.52;;;;;;;2.53;76.32;100670.66;4929548;29;20046;-71
2023/02/24 05:54:05;;;;;;;199.35;183.60;;;;;;;2.54;75.32;100661.69;4926608;29;20043;-71
2023/02/24 05:56:33;;;;;;;202.98;186.07;;;;;;;2.56;75.64;100658.84;4926220;29;20044;-72
2023/02/24 05:59:03;;;;;;;200.23;183.95;;;;;;;2.56;75.92;100643.78;4928316;29;20122;-72
2023/02/24 06:01:34;;;;;;;200.55;184.10;;;;;;;2.56;76.32;100645.63;4929397;29;20040;-73
2023/02/24 06:04:06;;;;;;;198.20;182.13;;;;;;;2.56;75.90;100635.84;4927940;29;20509;-71
2023/02/24 06:06:37;;;;;;;199.98;184.02;;;;;;;2.63;75.91;100639.22;4926984;28;20062;-71
2023/02/24 06:09:09;;;;;;;199.98;183.98;;;;;;;2.65;75.77;100644.31;4909499;29;20047;-72
2023/02/24 06:11:39;;;;;;;199.45;183.25;;;;;;;2.60;75.85;100628.28;4926428;29;20042;-72
2023/02/24 06:14:07;;;;;;;198.40;182.15;;;;;;;2.57;76.58;100629.53;4929830;29;20126;-72
2023/02/24 06:16:38;;;;;;;198.45;182.73;;;;;;;2.60;76.65;100633.59;4910396;29;20058;-73
2023/02/24 06:19:06;;;;;;;195.48;179.95;;;;;;;2.58;76.69;100628.53;4944494;28;20040;-71
2023/02/24 06:21:34;;;;;;;199.90;183.55;;;;;;;2.55;77.62;100625.50;4933916;29;20063;-71
2023/02/24 06:24:00;;;;;;;198.60;182.23;;;;;;;2.52;77.48;100625.94;4931808;29;20046;-71
2023/02/24 06:26:28;;;;;;;202.00;185.73;;;;;;;2.49;78.15;100621.09;4931833;29;20115;-71
2023/02/24 06:28:57;;;;;;;199.70;183.63;;;;;;;2.39;78.90;100617.13;4947767;28;20485;-72
2023/02/24 06:31:23;;;;;;;197.85;181.27;;;;;;;2.34;79.30;100624.88;4947633;28;20051;-73
2023/02/24 06:33:49;;;;;;;199.65;183.25;;;;;;;2.26;80.65;100613.78;4917643;29;20094;-73
2023/02/24 06:36:15;;;;;;;199.10;182.98;;;;;;;2.18;81.58;100625.44;4948385;29;20035;-72
2023/02/24 06:38:40;;;;;;;200.88;184.45;;;;;;;2.07;82.45;100618.22;4935652;28;20051;-72
2023/02/24 06:41:09;;;;;;;199.52;183.07;;;;;;;1.98;82.69;100609.78;4944818;28;20075;-73
2023/02/24 06:43:42;;;;;;;203.52;187.13;;;;;;;1.94;83.45;100599.84;4911231;29;20040;-72
2023/02/24 06:46:09;;;;;;;208.05;191.35;;;;;;;1.77;84.10;100600.41;4928435;29;20055;-72
2023/02/24 06:48:38;;;;;;;202.18;185.65;;;;;;;1.79;83.78;100600.97;4929266;29;20043;-72
2023/02/24 06:51:12;;;;;;;203.60;187.02;;;;;;;1.72;84.80;100605.50;4926811;29;20035;-72
2023/02/24 06:53:41;;;;;;;202.70;186.55;;;;;;;1.68;85.15;100593.75;4945236;29;20079;-72
2023/02/24 06:56:13;;;;;;;199.50;183.25;;;;;;;1.64;86.34;100592.56;4925794;29;20034;-73
2023/02/24 06:58:43;;;;;;;201.43;184.30;;;;;;;1.60;85.79;100576.34;4928948;29;20051;-73
2023/02/24 07:01:12;;;;;;;206.98;190.45;;;;;;;1.58;86.29;100567.03;4926150;29;20043;-73
2023/02/24 07:03:39;;;;;;;204.23;187.35;;;;;;;1.58;86.11;100561.75;4927560;29;20046;-72
2023/02/24 07:06:24;;;;;;;211.32;194.77;;;;;;;1.57;86.54;100576.78;4926495;29;20075;-73
2023/02/24 07:08:51;;;;;;;212.95;195.75;;;;;;;1.49;87.47;100568.28;4941980;28;20039;-74
2023/02/24 07:11:18;;;;;;;202.45;185.50;;;;;;;1.54;87.72;100573.75;4924721;29;20050;-74
2023/02/24 07:13:48;;;;;;;212.65;195.60;;;;;;;1.47;86.71;100565.88;4946542;28;20492;-73
2023/02/24 07:16:16;;;;;;;202.77;185.80;;;;;;;1.48;86.76;100558.75;4928078;29;20560;-74
2023/02/24 07:18:43;;;;;;;207.20;190.38;;;;;;;1.51;86.93;100551.25;4929206;29;20055;-75
2023/02/24 07:21:15;;;;;;;204.13;187.75;;;;;;;1.54;86.83;100553.44;4943962;28;20039;-73
2023/02/24 07:23:43;;;;;;;203.70;187.40;;;;;;;1.53;86.72;100543.09;4929463;29;20046;-73
2023/02/24 07:26:14;;;;;;;208.30;191.57;;;;;;;1.51;87.61;100535.41;4929334;29;20086;-73
2023/02/24 07:28:41;;;;;;;202.27;185.20;;;;;;;1.52;88.09;100525.66;4916399;29;20056;-74
2023/02/24 07:31:09;;;;;;;208.48;192.23;;;;;;;1.52;87.20;100525.66;4928149;29;20036;-74
2023/02/24 07:33:36;;;;;;;205.38;188.90;;;;;;;1.51;87.49;100524.84;4929595;29;20051;-74
2023/02/24 07:36:09;;;;;;;204.35;187.90;;;;;;;1.53;87.40;100519.34;4927898;29;20036;-73
2023/02/24 07:38:36;;;;;;;201.68;185.85;;;;;;;1.52;87.28;100509.81;4943594;28;20035;-74
2023/02/24 07:41:06;;;;;;;208.70;192.90;;;;;;;1.53;86.88;100504.31;4926706;29;20039;-73
2023/02/24 07:43:33;;;;;;;198.77;183.00;;;;;;;1.56;87.42;100501.25;4926692;29;20121;-72
2023/02/24 07:46:12;;;;;;;202.50;186.50;;;;;;;1.54;86.75;100492.72;4927686;29;20038;-74
2023/02/24 07:48:40;;;;;;;204.45;188.18;;;;;;;1.54;87.89;100498.00;4927059;29;20039;-74
2023/02/24 07:51:07;;;;;;;211.30;194.93;;;;;;;1.49;86.72;100487.31;4914063;29;20055;-73
2023/02/24 07:53:34;;;;;;;203.73;187.98;;;;;;;1.44;87.51;100481.88;4943090;28;20035;-74
2023/02/24 07:56:18;;;;;;;201.25;185.40;;;;;;;1.41;87.42;100476.19;4928118;29;20027;-74
2023/02/24 07:58:45;;;;;;;204.13;187.57;;;;;;;1.48;87.54;100466.41;4911686;29;20081;-74
2023/02/24 08:01:26;;;;;;;214.35;197.65;;;;;;;1.46;87.78;100477.16;4910405;29;20051;-74
2023/02/24 08:04:00;;;;;;;199.90;183.98;;;;;;;1.41;87.72;100463.00;4927742;29;20070;-74
2023/02/24 08:06:37;;;;;;;203.88;187.23;;;;;;;1.42;87.38;100451.41;4942338;28;20482;-72
2023/02/24 08:09:15;;;;;;;202.52;186.27;;;;;;;1.40;87.27;100458.75;4913692;29;20035;-73
2023/02/24 08:11:44;;;;;;;202.23;186.30;;;;;;;1.44;88.06;100446.75;4927013;29;20071;-73
2023/02/24 08:14:15;;;;;;;211.38;195.02;;;;;;;1.40;87.68;100445.56;4943643;28;20044;-74
2023/02/24 08:16:42;;;;;;;214.23;197.90;;;;;;;1.41;87.68;100439.25;4912442;29;20036;-74
2023/02/24 08:19:20;;;;;;;214.45;197.95;;;;;;;1.38;88.27;100445.78;4927410;29;20434;-73
2023/02/24 08:21:52;;;;;;;205.25;188.90;;;;;;;1.33;88.34;100435.88;4930481;29;20031;-73
2023/02/24 08:24:22;;;;;;;206.90;190.38;;;;;;;1.35;88.07;100420.66;4927418;29;20437;-72
2023/02/24 08:27:03;;;;;;;211.20;194.73;;;;;;;1.38;88.77;100423.88;4926088;29;20139;-73
2023/02/24 08:29:39;;;;;;;206.82;190.35;;;;;;;1.36;87.92;100421.47;4943554;28;20730;-73
2023/02/24 08:32:08;;;;;;;213.32;196.60;;;;;;;1.45;88.40;100414.88;4926515;29;20047;-71
2023/02/24 08:34:38;;;;;;;208.07;191.38;;;;;;;1.46;88.24;100407.75;4910062;29;20138;-74
2023/02/24 08:37:04;;;;;;;204.90;188.48;;;;;;;1.46;88.22;100398.00;4925258;29;20044;-73
2023/02/24 08:39:35;;;;;;;215.63;198.70;;;;;;;1.44;88.11;100393.97;4911624;29;20035;-72
2023/02/24 08:42:01;;;;;;;209.02;193.18;;;;;;;1.36;88.10;100385.31;4910763;29;20036;-73
2023/02/24 08:44:27;;;;;;;211.02;194.93;;;;;;;1.38;87.80;100368.47;4927578;29;20040;-72
2023/02/24 08:46:53;;;;;;;200.93;184.93;;;;;;;1.40;88.17;100369.03;4925121;29;20884;-73
2023/02/24 08:49:23;;;;;;;203.73;188.02;;;;;;;1.38;87.61;100350.00;4931463;29;20036;-74
2023/02/24 08:51:51;;;;;;;205.52;190.02;;;;;;;1.39;88.04;100362.16;4942337;28;20458;-73
2023/02/24 08:54:25;;;;;;;204.23;188.73;;;;;;;1.36;87.32;100345.75;4942520;28;20501;-73
2023/02/24 08:56:55;;;;;;;203.43;187.73;;;;;;;1.45;87.92;100348.09;4940596;28;20039;-74
2023/02/24 08:59:48;;;;;;;208.00;192.40;;;;;;;1.40;87.64;100347.94;4931909;29;20038;-72
2023/02/24 09:04:51;;;;;;;201.60;185.75;;;;;;;1.48;88.02;100331.81;4923307;29;20494;-73
2023/02/24 09:07:19;;;;;;;200.18;184.60;;;;;;;1.44;88.26;100317.47;4926369;28;20074;-73
2023/02/24 09:09:46;;;;;;;208.98;193.65;;;;;;;1.51;87.63;100323.47;4926801;29;20035;-74
2023/02/24 09:12:27;;;;;;;201.13;185.88;;;;;;;1.54;87.94;100323.00;4942684;28;20047;-73
2023/02/24 09:15:03;;;;;;;203.70;188.30;;;;;;;1.55;87.66;100321.97;4931619;29;20039;-74
2023/02/24 09:17:39;;;;;;;199.85;184.55;;;;;;;1.55;87.76;100308.78;4938988;28;20067;-74
2023/02/24 09:20:35;;;;;;;202.25;187.05;;;;;;;1.48;87.52;100292.22;4926438;29;20040;-74
2023/02/24 09:23:06;;;;;;;204.57;189.25;;;;;;;1.51;87.11;100286.53;4925543;29;20516;-73
2023/02/24 09:25:42;;;;;;;205.02;189.32;;;;;;;1.53;88.04;100292.38;4929233;29;20164;-74
2023/02/24 09:28:16;;;;;;;205.65;190.27;;;;;;;1.57;87.66;100281.16;4907369;29;20103;-74
2023/02/24 09:30:54;;;;;;;199.10;183.45;;;;;;;1.63;87.71;100284.75;4927288;29;20031;-73
2023/02/24 09:33:40;;;;;;;202.63;187.30;;;;;;;1.75;88.23;100282.16;4925947;29;20039;-74
2023/02/24 09:36:12;;;;;;;202.43;187.02;;;;;;;1.73;87.12;100274.47;4925563;29;20194;-75
2023/02/24 09:44:44;;;;;;;204.25;188.75;;;;;;;1.77;87.12;100264.28;4907592;29;20080;-74
2023/02/24 09:47:29;;;;;;;;;;;;;;;1.84;87.34;100276.34;4927636;29;20118;-73
2023/02/24 09:49:59;;;;;;;208.63;193.02;;;;;;;1.84;86.91;100252.59;4922351;29;19918;-74
2023/02/24 09:52:40;;;;;;;200.82;185.80;;;;;;;1.81;87.44;100253.03;4926220;28;20035;-74
2023/02/24 09:55:34;;;;;;;203.30;187.80;;;;;;;1.82;87.79;100253.81;4928732;29;20043;-72
2023/02/24 10:00:54;;;;;;;202.25;186.98;;;;;;;1.91;87.90;100240.09;4930150;29;20046;-73
2023/02/24 10:03:46;;;;;;;202.77;187.07;;;;;;;1.99;87.47;100235.53;4930472;29;20035;-73
2023/02/24 10:06:15;;;;;;;202.07;186.73;;;;;;;1.99;87.25;100224.97;4926757;29;20687;-73
2023/02/24 10:08:49;;;;;;;202.93;187.27;;;;;;;2.13;87.16;100226.38;4911739;29;20069;-74
2023/02/24 10:11:15;;;;;;;201.40;185.70;;;;;;;2.00;86.24;100216.00;4944670;28;20184;-73
2023/02/24 10:13:51;;;;;;;199.95;184.77;;;;;;;2.11;87.37;100229.25;4930229;29;20044;-73
2023/02/24 10:16:23;;;;;;;204.93;189.52;;;;;;;2.06;86.53;100223.03;4913038;29;20047;-73
2023/02/24 10:19:15;;;;;;;198.88;183.55;;;;;;;2.11;86.91;100217.88;4912898;29;20916;-75
2023/02/24 10:22:01;;;;;;;203.88;188.68;;;;;;;2.14;86.30;100201.56;4931299;28;20044;-73
2023/02/24 10:24:36;;;;;;;201.07;186.18;;;;;;;2.11;86.40;100209.97;4929611;29;20032;-74
2023/02/24 10:27:11;;;;;;;205.25;189.75;;;;;;;2.20;86.43;100205.94;4928778;29;20394;-74
2023/02/24 10:29:46;;;;;;;199.05;183.82;;;;;;;2.23;86.29;100194.09;4928561;29;20044;-75
2023/02/24 10:32:22;;;;;;;200.73;185.52;;;;;;;2.19;86.62;100199.88;4927332;29;20055;-74
2023/02/24 10:34:52;;;;;;;198.93;183.63;;;;;;;2.33;86.55;100194.38;4928508;29;20032;-75
2023/02/24 10:37:23;;;;;;;204.65;189.18;;;;;;;2.51;86.90;100180.22;4912836;29;20098;-73
2023/02/24 10:39:49;;;;;;;204.52;189.02;;;;;;;2.58;86.26;100176.47;4946888;28;20039;-74
2023/02/24 10:42:33;;;;;;;206.25;190.40;;;;;;;2.50;86.43;100178.63;4930799;29;20139;-74
2023/02/24 10:45:12;;;;;;;200.45;185.30;;;;;;;2.55;86.05;100181.38;4944485;28;20052;-74
2023/02/24 10:47:43;;;;;;;203.10;187.60;;;;;;;2.38;86.20;100170.72;4911532;29;20055;-75
2023/02/24 10:50:25;;;;;;;203.95;188.60;;;;;;;2.26;86.18;100172.53;4927076;29;20071;-74
2023/02/24 10:58:26;;;;;;;206.23;190.63;;;;;;;2.30;87.71;100163.09;4933696;29;20055;-75
2023/02/24 11:01:11;;;;;;;205.95;190.23;;;;;;;2.36;87.54;100146.31;4929082;29;20044;-74
2023/02/24 11:03:59;;;;;;;208.30;192.45;;;;;;;2.40;87.85;100145.66;4928452;29;20515;-73
2023/02/24 11:18:01;;;;;;;207.15;191.35;;;;;;;2.73;87.23;100108.03;4911998;29;20433;-74
2023/02/24 11:20:34;;;;;;;205.23;188.85;;;;;;;2.74;86.82;100106.19;4944030;28;20039;-73
2023/02/24 11:23:01;;;;;;;;;;;;;;;2.80;86.83;100099.97;4945020;28;20058;-73
2023/02/24 11:25:36;;;;;;;209.05;193.07;;;;;;;2.87;86.20;100100.66;4928455;29;20008;-74
2023/02/24 11:28:03;;;;;;;206.40;190.10;;;;;;;2.89;86.99;100103.03;4943019;28;20625;-74
2023/02/24 11:30:42;;;;;;;208.95;192.93;;;;;;;3.04;85.81;100094.59;4943375;28;20142;-74
2023/02/24 11:33:41;;;;;;;206.77;190.88;;;;;;;2.93;85.99;100083.84;4941816;28;20440;-74
2023/02/24 11:36:12;;;;;;;206.13;190.38;;;;;;;2.95;86.50;100083.59;4926206;29;20105;-74
2023/02/24 11:38:49;;;;;;;120.37;108.47;;;;;;;2.90;86.27;100071.06;4930267;29;20043;-74
2023/02/24 11:41:26;;;;;;;203.93;188.32;;;;;;;3.03;86.44;100072.63;4942704;28;20658;-74
2023/02/24 11:44:15;;;;;;;201.38;185.68;;;;;;;3.06;85.70;100055.50;4915459;29;20036;-73
2023/02/24 11:46:46;;;;;;;203.50;187.80;;;;;;;2.93;85.86;100067.16;4939185;29;20107;-75
2023/02/24 11:49:28;;;;;;;204.18;188.68;;;;;;;2.87;86.27;100063.63;4950114;28;20035;-74
2023/02/24 11:51:57;;;;;;;204.43;188.52;;;;;;;3.00;86.46;100057.25;4915408;29;20039;-74
2023/02/24 11:54:25;;;;;;;205.93;189.73;;;;;;;2.98;86.69;100048.72;4930482;29;20048;-74
2023/02/24 11:56:53;;;;;;;206.82;190.32;;;;;;;3.01;86.20;100041.13;4943978;28;20031;-74
2023/02/24 11:59:29;;;;;;;206.00;189.95;;;;;;;3.16;86.03;100034.50;4943429;28;20106;-74